sensor_id;sensor_type;location;lat;lon;timestamp;temperature;humidity
30037;DHT22;36325;51.512;-0.382;2024-01-06T00:00:26;7.60;99.90
30037;DHT22;36325;51.512;-0.382;2024-01-06T00:02:54;7.60;99.90
30037;DHT22;36325;51.512;-0.382;2024-01-06T00:05:21;7.70;99.90
30037;DHT22;36325;51.512;-0.382;2024-01-06T00:07:48;7.70;99.90
30037;DHT22;36325;51.512;-0.382;2024-01-06T00:10:16;7.70;99.90
30037;DHT22;36325;51.512;-0.382;2024-01-06T00:12:44;7.70;99.90
30037;DHT22;36325;51.512;-0.382;2024-01-06T00:15:11;7.70;99.90
30037;DHT22;36325;51.512;-0.382;2024-01-06T00:17:38;7.70;99.90
30037;DHT22;36325;51.512;-0.382;2024-01-06T00:20:06;7.60;99.90
30037;DHT22;36325;51.512;-0.382;2024-01-06T00:22:33;7.70;99.90
30037;DHT22;36325;51.512;-0.382;2024-01-06T00:25:01;7.70;99.90
30037;DHT22;36325;51.512;-0.382;2024-01-06T00:27:28;7.70;99.90
30037;DHT22;36325;51.512;-0.382;2024-01-06T00:29:55;7.60;99.90
30037;DHT22;36325;51.512;-0.382;2024-01-06T00:32:22;7.60;99.90
30037;DHT22;36325;51.512;-0.382;2024-01-06T00:34:49;7.70;99.90
30037;DHT22;36325;51.512;-0.382;2024-01-06T00:37:16;7.70;99.90
30037;DHT22;36325;51.512;-0.382;2024-01-06T00:39:43;7.70;99.90
30037;DHT22;36325;51.512;-0.382;2024-01-06T00:42:10;7.70;99.90
30037;DHT22;36325;51.512;-0.382;2024-01-06T00:44:37;7.70;99.90
30037;DHT22;36325;51.512;-0.382;2024-01-06T00:47:05;7.70;99.90
30037;DHT22;36325;51.512;-0.382;2024-01-06T00:49:32;7.70;99.90
30037;DHT22;36325;51.512;-0.382;2024-01-06T00:51:59;7.70;99.90
30037;DHT22;36325;51.512;-0.382;2024-01-06T00:54:26;7.70;99.90
30037;DHT22;36325;51.512;-0.382;2024-01-06T00:56:54;7.70;99.90
30037;DHT22;36325;51.512;-0.382;2024-01-06T00:59:23;7.70;99.90
30037;DHT22;36325;51.512;-0.382;2024-01-06T01:01:51;7.70;99.90
30037;DHT22;36325;51.512;-0.382;2024-01-06T01:04:18;7.70;99.90
30037;DHT22;36325;51.512;-0.382;2024-01-06T01:06:46;7.60;99.90
30037;DHT22;36325;51.512;-0.382;2024-01-06T01:09:13;7.60;99.90
30037;DHT22;36325;51.512;-0.382;2024-01-06T01:11:41;7.60;99.90
30037;DHT22;36325;51.512;-0.382;2024-01-06T01:14:09;7.60;99.90
30037;DHT22;36325;51.512;-0.382;2024-01-06T01:16:36;7.60;99.90
30037;DHT22;36325;51.512;-0.382;2024-01-06T01:19:03;7.60;99.90
30037;DHT22;36325;51.512;-0.382;2024-01-06T01:21:31;7.60;99.90
30037;DHT22;36325;51.512;-0.382;2024-01-06T01:23:59;7.60;99.90
30037;DHT22;36325;51.512;-0.382;2024-01-06T01:26:26;7.60;99.90
30037;DHT22;36325;51.512;-0.382;2024-01-06T01:28:53;7.60;99.90
30037;DHT22;36325;51.512;-0.382;2024-01-06T01:31:30;7.60;99.90
30037;DHT22;36325;51.512;-0.382;2024-01-06T01:33:58;7.60;99.90
30037;DHT22;36325;51.512;-0.382;2024-01-06T01:36:25;7.60;99.90
30037;DHT22;36325;51.512;-0.382;2024-01-06T01:38:52;7.60;99.90
30037;DHT22;36325;51.512;-0.382;2024-01-06T01:41:19;7.60;99.90
30037;DHT22;36325;51.512;-0.382;2024-01-06T01:43:46;7.60;99.90
30037;DHT22;36325;51.512;-0.382;2024-01-06T01:46:13;7.60;99.90
30037;DHT22;36325;51.512;-0.382;2024-01-06T01:48:41;7.60;99.90
30037;DHT22;36325;51.512;-0.382;2024-01-06T01:51:08;7.60;99.90
30037;DHT22;36325;51.512;-0.382;2024-01-06T01:53:36;7.60;99.90
30037;DHT22;36325;51.512;-0.382;2024-01-06T01:56:03;7.60;99.90
30037;DHT22;36325;51.512;-0.382;2024-01-06T01:58:31;7.60;99.90
30037;DHT22;36325;51.512;-0.382;2024-01-06T02:00:58;7.60;99.90
30037;DHT22;36325;51.512;-0.382;2024-01-06T02:03:26;7.60;99.90
30037;DHT22;36325;51.512;-0.382;2024-01-06T02:05:53;7.70;99.90
30037;DHT22;36325;51.512;-0.382;2024-01-06T02:08:21;7.70;99.90
30037;DHT22;36325;51.512;-0.382;2024-01-06T02:10:48;7.60;99.90
30037;DHT22;36325;51.512;-0.382;2024-01-06T02:13:15;7.60;99.90
30037;DHT22;36325;51.512;-0.382;2024-01-06T02:15:43;7.70;99.90
30037;DHT22;36325;51.512;-0.382;2024-01-06T02:18:10;7.70;99.90
30037;DHT22;36325;51.512;-0.382;2024-01-06T02:20:37;7.60;99.90
30037;DHT22;36325;51.512;-0.382;2024-01-06T02:23:05;7.60;99.90
30037;DHT22;36325;51.512;-0.382;2024-01-06T02:25:32;7.60;99.90
30037;DHT22;36325;51.512;-0.382;2024-01-06T02:28:00;7.60;99.90
30037;DHT22;36325;51.512;-0.382;2024-01-06T02:30:27;7.60;99.90
30037;DHT22;36325;51.512;-0.382;2024-01-06T02:32:54;7.70;99.90
30037;DHT22;36325;51.512;-0.382;2024-01-06T02:35:21;7.70;99.90
30037;DHT22;36325;51.512;-0.382;2024-01-06T02:37:48;7.70;99.90
30037;DHT22;36325;51.512;-0.382;2024-01-06T02:40:16;7.70;99.90
30037;DHT22;36325;51.512;-0.382;2024-01-06T02:42:43;7.70;99.90
30037;DHT22;36325;51.512;-0.382;2024-01-06T02:45:10;10.80;99.90
30037;DHT22;36325;51.512;-0.382;2024-01-06T02:47:37;7.80;99.90
30037;DHT22;36325;51.512;-0.382;2024-01-06T02:50:05;7.70;99.90
30037;DHT22;36325;51.512;-0.382;2024-01-06T02:52:32;7.70;99.90
30037;DHT22;36325;51.512;-0.382;2024-01-06T02:54:59;7.70;99.90
30037;DHT22;36325;51.512;-0.382;2024-01-06T02:57:29;7.70;99.90
30037;DHT22;36325;51.512;-0.382;2024-01-06T02:59:56;7.70;99.90
30037;DHT22;36325;51.512;-0.382;2024-01-06T03:02:24;7.70;99.90
30037;DHT22;36325;51.512;-0.382;2024-01-06T03:04:51;7.70;99.90
30037;DHT22;36325;51.512;-0.382;2024-01-06T03:07:19;7.70;99.90
30037;DHT22;36325;51.512;-0.382;2024-01-06T03:09:48;7.70;99.90
30037;DHT22;36325;51.512;-0.382;2024-01-06T03:12:15;7.70;99.90
30037;DHT22;36325;51.512;-0.382;2024-01-06T03:14:43;7.70;99.90
30037;DHT22;36325;51.512;-0.382;2024-01-06T03:17:10;7.70;99.90
30037;DHT22;36325;51.512;-0.382;2024-01-06T03:19:38;7.70;99.90
30037;DHT22;36325;51.512;-0.382;2024-01-06T03:22:06;7.70;99.90
30037;DHT22;36325;51.512;-0.382;2024-01-06T03:24:34;7.70;99.90
30037;DHT22;36325;51.512;-0.382;2024-01-06T03:27:01;7.70;99.90
30037;DHT22;36325;51.512;-0.382;2024-01-06T03:29:28;7.70;99.90
30037;DHT22;36325;51.512;-0.382;2024-01-06T03:31:55;7.70;99.90
30037;DHT22;36325;51.512;-0.382;2024-01-06T03:34:24;7.70;99.90
30037;DHT22;36325;51.512;-0.382;2024-01-06T03:36:51;8.60;99.90
30037;DHT22;36325;51.512;-0.382;2024-01-06T03:39:19;7.70;99.90
30037;DHT22;36325;51.512;-0.382;2024-01-06T03:41:46;7.70;99.90
30037;DHT22;36325;51.512;-0.382;2024-01-06T03:44:13;7.70;99.90
30037;DHT22;36325;51.512;-0.382;2024-01-06T03:46:40;7.70;99.90
30037;DHT22;36325;51.512;-0.382;2024-01-06T03:49:07;7.70;99.90
30037;DHT22;36325;51.512;-0.382;2024-01-06T03:51:35;7.70;99.90
30037;DHT22;36325;51.512;-0.382;2024-01-06T03:54:03;7.70;99.90
30037;DHT22;36325;51.512;-0.382;2024-01-06T03:56:30;7.60;99.90
30037;DHT22;36325;51.512;-0.382;2024-01-06T03:58:57;7.60;99.90
30037;DHT22;36325;51.512;-0.382;2024-01-06T04:01:26;7.60;99.90
30037;DHT22;36325;51.512;-0.382;2024-01-06T04:03:55;7.60;99.90
30037;DHT22;36325;51.512;-0.382;2024-01-06T04:06:22;7.60;99.90
30037;DHT22;36325;51.512;-0.382;2024-01-06T04:08:49;7.70;99.90
30037;DHT22;36325;51.512;-0.382;2024-01-06T04:11:18;7.50;99.90
30037;DHT22;36325;51.512;-0.382;2024-01-06T04:13:45;7.50;99.90
30037;DHT22;36325;51.512;-0.382;2024-01-06T04:16:12;7.40;99.90
30037;DHT22;36325;51.512;-0.382;2024-01-06T04:18:39;7.30;99.90
30037;DHT22;36325;51.512;-0.382;2024-01-06T04:21:06;7.30;99.90
30037;DHT22;36325;51.512;-0.382;2024-01-06T04:23:36;7.30;99.90
30037;DHT22;36325;51.512;-0.382;2024-01-06T04:26:03;7.20;99.90
30037;DHT22;36325;51.512;-0.382;2024-01-06T04:28:32;7.20;99.90
30037;DHT22;36325;51.512;-0.382;2024-01-06T04:30:59;7.20;99.90
30037;DHT22;36325;51.512;-0.382;2024-01-06T04:33:26;7.10;99.90
30037;DHT22;36325;51.512;-0.382;2024-01-06T04:35:55;7.10;99.90
30037;DHT22;36325;51.512;-0.382;2024-01-06T04:38:22;7.00;99.90
30037;DHT22;36325;51.512;-0.382;2024-01-06T04:40:49;7.00;99.90
30037;DHT22;36325;51.512;-0.382;2024-01-06T04:43:16;7.00;99.90
30037;DHT22;36325;51.512;-0.382;2024-01-06T04:45:44;6.90;99.90
30037;DHT22;36325;51.512;-0.382;2024-01-06T04:48:15;7.00;99.90
30037;DHT22;36325;51.512;-0.382;2024-01-06T04:50:44;7.00;99.90
30037;DHT22;36325;51.512;-0.382;2024-01-06T04:53:11;7.00;99.90
30037;DHT22;36325;51.512;-0.382;2024-01-06T04:55:38;7.00;99.90
30037;DHT22;36325;51.512;-0.382;2024-01-06T04:58:05;7.00;99.90
30037;DHT22;36325;51.512;-0.382;2024-01-06T05:00:33;7.00;99.90
30037;DHT22;36325;51.512;-0.382;2024-01-06T05:03:03;7.00;99.90
30037;DHT22;36325;51.512;-0.382;2024-01-06T05:05:30;7.00;99.90
30037;DHT22;36325;51.512;-0.382;2024-01-06T05:07:57;7.00;99.90
30037;DHT22;36325;51.512;-0.382;2024-01-06T05:10:25;7.10;99.90
30037;DHT22;36325;51.512;-0.382;2024-01-06T05:12:52;7.00;99.90
30037;DHT22;36325;51.512;-0.382;2024-01-06T05:15:20;7.10;99.90
30037;DHT22;36325;51.512;-0.382;2024-01-06T05:17:47;7.00;99.90
30037;DHT22;36325;51.512;-0.382;2024-01-06T05:20:15;7.00;99.90
30037;DHT22;36325;51.512;-0.382;2024-01-06T05:22:42;7.00;99.90
30037;DHT22;36325;51.512;-0.382;2024-01-06T05:27:41;7.00;99.90
30037;DHT22;36325;51.512;-0.382;2024-01-06T05:30:09;6.90;99.90
30037;DHT22;36325;51.512;-0.382;2024-01-06T05:32:37;6.90;99.90
30037;DHT22;36325;51.512;-0.382;2024-01-06T05:35:05;6.90;99.90
30037;DHT22;36325;51.512;-0.382;2024-01-06T05:37:40;6.90;99.90
30037;DHT22;36325;51.512;-0.382;2024-01-06T05:40:07;7.00;99.90
30037;DHT22;36325;51.512;-0.382;2024-01-06T05:42:35;6.90;99.90
30037;DHT22;36325;51.512;-0.382;2024-01-06T05:45:02;6.90;99.90
30037;DHT22;36325;51.512;-0.382;2024-01-06T05:47:29;6.90;99.90
30037;DHT22;36325;51.512;-0.382;2024-01-06T05:49:57;6.90;99.90
30037;DHT22;36325;51.512;-0.382;2024-01-06T05:52:24;6.90;99.90
30037;DHT22;36325;51.512;-0.382;2024-01-06T05:54:51;6.40;99.90
30037;DHT22;36325;51.512;-0.382;2024-01-06T05:57:19;6.90;99.90
30037;DHT22;36325;51.512;-0.382;2024-01-06T05:59:47;6.90;99.90
30037;DHT22;36325;51.512;-0.382;2024-01-06T06:02:14;6.90;99.90
30037;DHT22;36325;51.512;-0.382;2024-01-06T06:04:42;6.90;99.90
30037;DHT22;36325;51.512;-0.382;2024-01-06T06:07:09;6.90;99.90
30037;DHT22;36325;51.512;-0.382;2024-01-06T06:09:36;6.90;99.90
30037;DHT22;36325;51.512;-0.382;2024-01-06T06:12:06;6.90;99.90
30037;DHT22;36325;51.512;-0.382;2024-01-06T06:14:40;6.90;99.90
30037;DHT22;36325;51.512;-0.382;2024-01-06T06:17:18;6.90;99.90
30037;DHT22;36325;51.512;-0.382;2024-01-06T06:19:45;6.90;99.90
30037;DHT22;36325;51.512;-0.382;2024-01-06T06:22:13;6.80;99.90
30037;DHT22;36325;51.512;-0.382;2024-01-06T06:24:40;6.80;99.90
30037;DHT22;36325;51.512;-0.382;2024-01-06T06:27:08;6.80;99.90
30037;DHT22;36325;51.512;-0.382;2024-01-06T06:29:35;6.80;99.90
30037;DHT22;36325;51.512;-0.382;2024-01-06T06:32:02;6.80;99.90
30037;DHT22;36325;51.512;-0.382;2024-01-06T06:34:31;6.80;99.90
30037;DHT22;36325;51.512;-0.382;2024-01-06T06:36:58;6.80;99.90
30037;DHT22;36325;51.512;-0.382;2024-01-06T06:39:25;6.80;99.90
30037;DHT22;36325;51.512;-0.382;2024-01-06T06:41:54;6.80;99.90
30037;DHT22;36325;51.512;-0.382;2024-01-06T06:44:21;6.80;99.90
30037;DHT22;36325;51.512;-0.382;2024-01-06T06:46:49;6.80;99.90
30037;DHT22;36325;51.512;-0.382;2024-01-06T06:49:17;6.80;99.90
30037;DHT22;36325;51.512;-0.382;2024-01-06T06:51:48;6.80;99.90
30037;DHT22;36325;51.512;-0.382;2024-01-06T06:54:19;6.80;99.90
30037;DHT22;36325;51.512;-0.382;2024-01-06T06:56:48;6.80;99.90
30037;DHT22;36325;51.512;-0.382;2024-01-06T06:59:16;6.80;99.90
30037;DHT22;36325;51.512;-0.382;2024-01-06T07:01:46;6.80;99.90
30037;DHT22;36325;51.512;-0.382;2024-01-06T07:04:14;6.80;99.90
30037;DHT22;36325;51.512;-0.382;2024-01-06T07:06:41;6.80;99.90
30037;DHT22;36325;51.512;-0.382;2024-01-06T07:09:11;6.80;99.90
30037;DHT22;36325;51.512;-0.382;2024-01-06T07:11:38;6.80;99.90
30037;DHT22;36325;51.512;-0.382;2024-01-06T07:14:06;6.80;99.90
30037;DHT22;36325;51.512;-0.382;2024-01-06T07:16:33;6.80;99.90
30037;DHT22;36325;51.512;-0.382;2024-01-06T07:19:01;6.80;99.90
30037;DHT22;36325;51.512;-0.382;2024-01-06T07:21:29;6.80;99.90
30037;DHT22;36325;51.512;-0.382;2024-01-06T07:23:56;6.80;99.90
30037;DHT22;36325;51.512;-0.382;2024-01-06T07:26:24;6.80;99.90
30037;DHT22;36325;51.512;-0.382;2024-01-06T07:28:58;6.70;99.90
30037;DHT22;36325;51.512;-0.382;2024-01-06T07:31:27;9.10;99.90
30037;DHT22;36325;51.512;-0.382;2024-01-06T07:33:57;6.70;99.90
30037;DHT22;36325;51.512;-0.382;2024-01-06T07:36:24;6.70;99.90
30037;DHT22;36325;51.512;-0.382;2024-01-06T07:38:51;6.70;99.90
30037;DHT22;36325;51.512;-0.382;2024-01-06T07:41:19;6.70;99.90
30037;DHT22;36325;51.512;-0.382;2024-01-06T07:43:46;6.70;99.90
30037;DHT22;36325;51.512;-0.382;2024-01-06T07:46:13;6.70;99.90
30037;DHT22;36325;51.512;-0.382;2024-01-06T07:48:43;6.70;99.90
30037;DHT22;36325;51.512;-0.382;2024-01-06T07:51:11;6.80;99.90
30037;DHT22;36325;51.512;-0.382;2024-01-06T07:53:39;6.70;99.90
30037;DHT22;36325;51.512;-0.382;2024-01-06T07:56:06;9.50;99.90
30037;DHT22;36325;51.512;-0.382;2024-01-06T07:58:34;6.60;99.90
30037;DHT22;36325;51.512;-0.382;2024-01-06T08:01:04;6.70;99.90
30037;DHT22;36325;51.512;-0.382;2024-01-06T08:03:32;6.60;99.90
30037;DHT22;36325;51.512;-0.382;2024-01-06T08:06:00;6.60;99.90
30037;DHT22;36325;51.512;-0.382;2024-01-06T08:08:28;6.60;99.90
30037;DHT22;36325;51.512;-0.382;2024-01-06T08:10:56;6.60;99.90
30037;DHT22;36325;51.512;-0.382;2024-01-06T08:13:23;6.60;99.90
30037;DHT22;36325;51.512;-0.382;2024-01-06T08:15:51;6.70;99.90
30037;DHT22;36325;51.512;-0.382;2024-01-06T08:18:19;6.60;99.90
30037;DHT22;36325;51.512;-0.382;2024-01-06T08:20:48;6.60;99.90
30037;DHT22;36325;51.512;-0.382;2024-01-06T08:23:20;6.60;99.90
30037;DHT22;36325;51.512;-0.382;2024-01-06T08:25:48;6.60;99.90
30037;DHT22;36325;51.512;-0.382;2024-01-06T08:28:29;6.60;99.90
30037;DHT22;36325;51.512;-0.382;2024-01-06T08:30:56;6.60;99.90
30037;DHT22;36325;51.512;-0.382;2024-01-06T08:33:24;6.60;99.90
30037;DHT22;36325;51.512;-0.382;2024-01-06T08:35:52;6.70;99.90
30037;DHT22;36325;51.512;-0.382;2024-01-06T08:38:22;6.70;99.90
30037;DHT22;36325;51.512;-0.382;2024-01-06T08:43:26;6.70;99.90
30037;DHT22;36325;51.512;-0.382;2024-01-06T08:45:54;6.60;99.90
30037;DHT22;36325;51.512;-0.382;2024-01-06T08:48:22;6.80;99.90
30037;DHT22;36325;51.512;-0.382;2024-01-06T08:50:50;6.80;99.90
30037;DHT22;36325;51.512;-0.382;2024-01-06T08:53:17;6.80;99.90
30037;DHT22;36325;51.512;-0.382;2024-01-06T08:55:45;6.80;99.90
30037;DHT22;36325;51.512;-0.382;2024-01-06T08:58:13;6.90;99.90
30037;DHT22;36325;51.512;-0.382;2024-01-06T09:00:41;7.40;99.90
30037;DHT22;36325;51.512;-0.382;2024-01-06T09:03:08;6.90;99.90
30037;DHT22;36325;51.512;-0.382;2024-01-06T09:05:36;6.90;99.90
30037;DHT22;36325;51.512;-0.382;2024-01-06T09:08:05;7.00;99.90
30037;DHT22;36325;51.512;-0.382;2024-01-06T09:10:33;6.90;99.90
30037;DHT22;36325;51.512;-0.382;2024-01-06T09:13:01;7.00;99.90
30037;DHT22;36325;51.512;-0.382;2024-01-06T09:15:28;7.00;99.90
30037;DHT22;36325;51.512;-0.382;2024-01-06T09:17:57;7.00;99.90
30037;DHT22;36325;51.512;-0.382;2024-01-06T09:20:26;7.10;99.90
30037;DHT22;36325;51.512;-0.382;2024-01-06T09:22:54;7.10;99.90
30037;DHT22;36325;51.512;-0.382;2024-01-06T09:25:21;7.20;99.90
30037;DHT22;36325;51.512;-0.382;2024-01-06T09:27:58;7.20;99.90
30037;DHT22;36325;51.512;-0.382;2024-01-06T09:30:30;7.30;99.90
30037;DHT22;36325;51.512;-0.382;2024-01-06T09:32:57;7.30;99.90
30037;DHT22;36325;51.512;-0.382;2024-01-06T09:35:25;7.30;99.90
30037;DHT22;36325;51.512;-0.382;2024-01-06T09:37:53;7.30;99.90
30037;DHT22;36325;51.512;-0.382;2024-01-06T09:40:23;7.40;99.90
30037;DHT22;36325;51.512;-0.382;2024-01-06T09:42:51;7.40;99.90
30037;DHT22;36325;51.512;-0.382;2024-01-06T09:45:21;7.50;99.90
30037;DHT22;36325;51.512;-0.382;2024-01-06T09:47:50;7.50;99.90
30037;DHT22;36325;51.512;-0.382;2024-01-06T09:50:18;7.50;99.90
30037;DHT22;36325;51.512;-0.382;2024-01-06T09:52:49;7.50;99.90
30037;DHT22;36325;51.512;-0.382;2024-01-06T09:55:23;7.60;99.90
30037;DHT22;36325;51.512;-0.382;2024-01-06T09:57:51;7.70;99.90
30037;DHT22;36325;51.512;-0.382;2024-01-06T10:00:27;7.70;99.90
30037;DHT22;36325;51.512;-0.382;2024-01-06T10:02:56;7.70;99.90
30037;DHT22;36325;51.512;-0.382;2024-01-06T10:05:26;7.60;99.90
30037;DHT22;36325;51.512;-0.382;2024-01-06T10:07:58;7.60;99.90
30037;DHT22;36325;51.512;-0.382;2024-01-06T10:10:33;8.80;99.90
30037;DHT22;36325;51.512;-0.382;2024-01-06T10:13:01;7.60;99.90
30037;DHT22;36325;51.512;-0.382;2024-01-06T10:15:29;7.70;99.90
30037;DHT22;36325;51.512;-0.382;2024-01-06T10:17:56;7.70;99.90
30037;DHT22;36325;51.512;-0.382;2024-01-06T10:20:24;7.70;99.90
30037;DHT22;36325;51.512;-0.382;2024-01-06T10:22:53;7.70;99.90
30037;DHT22;36325;51.512;-0.382;2024-01-06T10:25:22;7.70;99.90
30037;DHT22;36325;51.512;-0.382;2024-01-06T10:27:50;7.80;99.90
30037;DHT22;36325;51.512;-0.382;2024-01-06T10:30:19;7.80;99.90
30037;DHT22;36325;51.512;-0.382;2024-01-06T10:32:50;6.50;99.90
30037;DHT22;36325;51.512;-0.382;2024-01-06T10:35:18;7.80;99.90
30037;DHT22;36325;51.512;-0.382;2024-01-06T10:37:47;7.80;99.90
30037;DHT22;36325;51.512;-0.382;2024-01-06T10:40:17;7.90;99.90
30037;DHT22;36325;51.512;-0.382;2024-01-06T10:42:45;7.90;99.90
30037;DHT22;36325;51.512;-0.382;2024-01-06T10:45:16;7.80;99.90
30037;DHT22;36325;51.512;-0.382;2024-01-06T10:47:46;7.80;99.90
30037;DHT22;36325;51.512;-0.382;2024-01-06T10:50:18;7.70;99.90
30037;DHT22;36325;51.512;-0.382;2024-01-06T10:52:46;7.70;99.90
30037;DHT22;36325;51.512;-0.382;2024-01-06T10:55:17;7.70;99.90
30037;DHT22;36325;51.512;-0.382;2024-01-06T10:57:47;7.70;99.90
30037;DHT22;36325;51.512;-0.382;2024-01-06T11:00:16;7.70;99.90
30037;DHT22;36325;51.512;-0.382;2024-01-06T11:02:44;7.70;99.90
30037;DHT22;36325;51.512;-0.382;2024-01-06T11:05:14;7.70;99.90
30037;DHT22;36325;51.512;-0.382;2024-01-06T11:07:42;7.70;99.90
30037;DHT22;36325;51.512;-0.382;2024-01-06T11:10:16;7.60;99.90
30037;DHT22;36325;51.512;-0.382;2024-01-06T11:12:44;7.60;99.90
30037;DHT22;36325;51.512;-0.382;2024-01-06T11:17:58;7.70;99.90
30037;DHT22;36325;51.512;-0.382;2024-01-06T11:20:28;7.60;99.90
30037;DHT22;36325;51.512;-0.382;2024-01-06T11:22:55;7.60;99.90
30037;DHT22;36325;51.512;-0.382;2024-01-06T11:25:43;7.70;99.90
30037;DHT22;36325;51.512;-0.382;2024-01-06T11:28:10;7.80;99.90
30037;DHT22;36325;51.512;-0.382;2024-01-06T11:30:39;8.00;99.90
30037;DHT22;36325;51.512;-0.382;2024-01-06T11:33:08;8.20;99.90
30037;DHT22;36325;51.512;-0.382;2024-01-06T11:35:36;8.20;99.90
30037;DHT22;36325;51.512;-0.382;2024-01-06T11:38:06;8.40;99.90
30037;DHT22;36325;51.512;-0.382;2024-01-06T11:40:35;8.40;99.90
30037;DHT22;36325;51.512;-0.382;2024-01-06T11:43:04;8.50;99.90
30037;DHT22;36325;51.512;-0.382;2024-01-06T11:45:36;8.50;99.90
30037;DHT22;36325;51.512;-0.382;2024-01-06T11:48:04;8.50;99.90
30037;DHT22;36325;51.512;-0.382;2024-01-06T11:50:32;8.50;99.90
30037;DHT22;36325;51.512;-0.382;2024-01-06T11:52:59;8.50;99.90
30037;DHT22;36325;51.512;-0.382;2024-01-06T11:55:29;8.50;99.90
30037;DHT22;36325;51.512;-0.382;2024-01-06T11:58:00;8.50;99.90
30037;DHT22;36325;51.512;-0.382;2024-01-06T12:00:32;8.60;99.90
30037;DHT22;36325;51.512;-0.382;2024-01-06T12:03:04;8.90;99.90
30037;DHT22;36325;51.512;-0.382;2024-01-06T12:05:31;9.20;99.90
30037;DHT22;36325;51.512;-0.382;2024-01-06T12:08:02;9.20;99.90
30037;DHT22;36325;51.512;-0.382;2024-01-06T12:10:33;9.30;99.90
30037;DHT22;36325;51.512;-0.382;2024-01-06T12:13:05;9.20;99.90
30037;DHT22;36325;51.512;-0.382;2024-01-06T12:15:40;9.20;99.90
30037;DHT22;36325;51.512;-0.382;2024-01-06T12:18:07;9.10;99.90
30037;DHT22;36325;51.512;-0.382;2024-01-06T12:20:37;9.00;99.90
30037;DHT22;36325;51.512;-0.382;2024-01-06T12:23:04;9.20;99.90
30037;DHT22;36325;51.512;-0.382;2024-01-06T12:25:34;9.10;99.90
30037;DHT22;36325;51.512;-0.382;2024-01-06T12:28:05;9.20;99.90
30037;DHT22;36325;51.512;-0.382;2024-01-06T12:30:33;9.20;99.90
30037;DHT22;36325;51.512;-0.382;2024-01-06T12:33:03;9.20;99.90
30037;DHT22;36325;51.512;-0.382;2024-01-06T12:35:31;9.40;99.90
30037;DHT22;36325;51.512;-0.382;2024-01-06T12:38:03;9.70;99.90
30037;DHT22;36325;51.512;-0.382;2024-01-06T12:40:35;10.40;99.90
30037;DHT22;36325;51.512;-0.382;2024-01-06T12:43:05;11.40;99.90
30037;DHT22;36325;51.512;-0.382;2024-01-06T12:45:33;11.40;99.90
30037;DHT22;36325;51.512;-0.382;2024-01-06T12:48:01;11.20;99.90
30037;DHT22;36325;51.512;-0.382;2024-01-06T12:50:28;11.00;99.90
30037;DHT22;36325;51.512;-0.382;2024-01-06T12:52:56;10.80;99.90
30037;DHT22;36325;51.512;-0.382;2024-01-06T12:55:23;10.50;99.90
30037;DHT22;36325;51.512;-0.382;2024-01-06T12:57:50;10.30;99.90
30037;DHT22;36325;51.512;-0.382;2024-01-06T13:00:18;10.10;99.90
30037;DHT22;36325;51.512;-0.382;2024-01-06T13:02:50;10.00;99.90
30037;DHT22;36325;51.512;-0.382;2024-01-06T13:05:17;9.70;99.90
30037;DHT22;36325;51.512;-0.382;2024-01-06T13:07:44;9.50;99.90
30037;DHT22;36325;51.512;-0.382;2024-01-06T13:10:13;9.30;99.90
30037;DHT22;36325;51.512;-0.382;2024-01-06T13:12:40;9.20;99.90
30037;DHT22;36325;51.512;-0.382;2024-01-06T13:15:12;9.20;99.90
30037;DHT22;36325;51.512;-0.382;2024-01-06T13:17:41;9.20;99.90
30037;DHT22;36325;51.512;-0.382;2024-01-06T13:20:15;9.30;99.90
30037;DHT22;36325;51.512;-0.382;2024-01-06T13:22:45;9.30;99.90
30037;DHT22;36325;51.512;-0.382;2024-01-06T13:25:13;9.30;99.90
30037;DHT22;36325;51.512;-0.382;2024-01-06T13:27:45;9.30;99.90
30037;DHT22;36325;51.512;-0.382;2024-01-06T13:30:12;9.20;99.90
30037;DHT22;36325;51.512;-0.382;2024-01-06T13:32:43;9.00;99.90
30037;DHT22;36325;51.512;-0.382;2024-01-06T13:35:12;8.30;99.90
30037;DHT22;36325;51.512;-0.382;2024-01-06T13:37:44;8.80;99.90
30037;DHT22;36325;51.512;-0.382;2024-01-06T13:40:17;8.60;99.90
30037;DHT22;36325;51.512;-0.382;2024-01-06T13:42:47;8.50;99.90
30037;DHT22;36325;51.512;-0.382;2024-01-06T13:45:14;8.50;99.90
30037;DHT22;36325;51.512;-0.382;2024-01-06T13:47:44;8.50;99.90
30037;DHT22;36325;51.512;-0.382;2024-01-06T13:50:13;8.40;99.90
30037;DHT22;36325;51.512;-0.382;2024-01-06T13:52:43;8.40;99.90
30037;DHT22;36325;51.512;-0.382;2024-01-06T13:55:13;8.30;99.90
30037;DHT22;36325;51.512;-0.382;2024-01-06T13:57:54;8.30;99.90
30037;DHT22;36325;51.512;-0.382;2024-01-06T14:00:35;8.20;99.90
30037;DHT22;36325;51.512;-0.382;2024-01-06T14:03:02;8.20;99.90
30037;DHT22;36325;51.512;-0.382;2024-01-06T14:05:30;8.10;99.90
30037;DHT22;36325;51.512;-0.382;2024-01-06T14:07:57;8.10;99.90
30037;DHT22;36325;51.512;-0.382;2024-01-06T14:10:25;8.10;99.90
30037;DHT22;36325;51.512;-0.382;2024-01-06T14:12:54;8.10;99.90
30037;DHT22;36325;51.512;-0.382;2024-01-06T14:15:22;8.00;99.90
30037;DHT22;36325;51.512;-0.382;2024-01-06T14:17:50;8.10;99.90
30037;DHT22;36325;51.512;-0.382;2024-01-06T14:20:20;8.30;99.90
30037;DHT22;36325;51.512;-0.382;2024-01-06T14:22:48;8.40;99.90
30037;DHT22;36325;51.512;-0.382;2024-01-06T14:25:19;8.40;99.90
30037;DHT22;36325;51.512;-0.382;2024-01-06T14:27:49;8.50;99.90
30037;DHT22;36325;51.512;-0.382;2024-01-06T14:30:16;8.50;99.90
30037;DHT22;36325;51.512;-0.382;2024-01-06T14:32:44;8.50;99.90
30037;DHT22;36325;51.512;-0.382;2024-01-06T14:35:12;8.60;99.90
30037;DHT22;36325;51.512;-0.382;2024-01-06T14:37:41;8.50;99.90
30037;DHT22;36325;51.512;-0.382;2024-01-06T14:40:09;8.50;99.90
30037;DHT22;36325;51.512;-0.382;2024-01-06T14:42:37;8.60;99.90
30037;DHT22;36325;51.512;-0.382;2024-01-06T14:45:04;8.60;99.90
30037;DHT22;36325;51.512;-0.382;2024-01-06T14:47:32;8.60;99.90
30037;DHT22;36325;51.512;-0.382;2024-01-06T14:50:00;8.70;99.90
30037;DHT22;36325;51.512;-0.382;2024-01-06T14:52:28;8.70;99.90
30037;DHT22;36325;51.512;-0.382;2024-01-06T14:54:55;8.70;99.90
30037;DHT22;36325;51.512;-0.382;2024-01-06T14:57:22;8.60;99.90
30037;DHT22;36325;51.512;-0.382;2024-01-06T14:59:49;8.50;99.90
30037;DHT22;36325;51.512;-0.382;2024-01-06T15:02:18;8.50;99.90
30037;DHT22;36325;51.512;-0.382;2024-01-06T15:04:46;8.50;99.90
30037;DHT22;36325;51.512;-0.382;2024-01-06T15:07:13;8.40;99.90
30037;DHT22;36325;51.512;-0.382;2024-01-06T15:09:41;8.40;99.90
30037;DHT22;36325;51.512;-0.382;2024-01-06T15:12:08;8.30;99.90
30037;DHT22;36325;51.512;-0.382;2024-01-06T15:14:36;8.40;99.90
30037;DHT22;36325;51.512;-0.382;2024-01-06T15:17:04;8.40;99.90
30037;DHT22;36325;51.512;-0.382;2024-01-06T15:19:31;8.30;99.90
30037;DHT22;36325;51.512;-0.382;2024-01-06T15:22:02;8.30;99.90
30037;DHT22;36325;51.512;-0.382;2024-01-06T15:24:31;8.20;99.90
30037;DHT22;36325;51.512;-0.382;2024-01-06T15:26:58;8.10;99.90
30037;DHT22;36325;51.512;-0.382;2024-01-06T15:29:25;8.10;99.90
30037;DHT22;36325;51.512;-0.382;2024-01-06T15:31:53;8.00;99.90
30037;DHT22;36325;51.512;-0.382;2024-01-06T15:34:24;7.90;99.90
30037;DHT22;36325;51.512;-0.382;2024-01-06T15:36:53;10.60;99.90
30037;DHT22;36325;51.512;-0.382;2024-01-06T15:39:20;7.90;99.90
30037;DHT22;36325;51.512;-0.382;2024-01-06T15:41:48;7.80;99.90
30037;DHT22;36325;51.512;-0.382;2024-01-06T15:44:16;7.80;99.90